sensor_id;sensor_type;location;lat;lon;timestamp;P1;durP1;ratioP1;P2;durP2;ratioP2
25980;SDS011;13772;52.996;9.124;2023-04-07T06:58:14;10.00;;;7.60;;
25980;SDS011;13772;52.996;9.124;2023-04-07T07:00:39;10.20;;;7.50;;
25980;SDS011;13772;52.996;9.124;2023-04-07T07:03:04;11.35;;;7.85;;
25980;SDS011;13772;52.996;9.124;2023-04-07T07:05:30;12.00;;;7.47;;
25980;SDS011;13772;52.996;9.124;2023-04-07T07:07:55;11.30;;;6.95;;
25980;SDS011;13772;52.996;9.124;2023-04-07T07:10:20;10.52;;;7.43;;
25980;SDS011;13772;52.996;9.124;2023-04-07T07:12:46;10.48;;;7.40;;
25980;SDS011;13772;52.996;9.124;2023-04-07T07:15:12;11.05;;;7.28;;
25980;SDS011;13772;52.996;9.124;2023-04-07T07:17:37;11.50;;;7.40;;
25980;SDS011;13772;52.996;9.124;2023-04-07T07:20:02;9.60;;;7.00;;
25980;SDS011;13772;52.996;9.124;2023-04-07T07:22:27;9.85;;;7.35;;
25980;SDS011;13772;52.996;9.124;2023-04-07T07:24:53;11.60;;;7.50;;
25980;SDS011;13772;52.996;9.124;2023-04-07T07:27:18;10.55;;;7.15;;
25980;SDS011;13772;52.996;9.124;2023-04-07T07:29:43;11.13;;;7.28;;
25980;SDS011;13772;52.996;9.124;2023-04-07T07:32:08;14.15;;;8.00;;
25980;SDS011;13772;52.996;9.124;2023-04-07T07:34:34;10.82;;;6.68;;
25980;SDS011;13772;52.996;9.124;2023-04-07T07:36:59;9.25;;;6.72;;
25980;SDS011;13772;52.996;9.124;2023-04-07T07:39:25;12.93;;;7.55;;
25980;SDS011;13772;52.996;9.124;2023-04-07T07:41:50;9.48;;;6.75;;
25980;SDS011;13772;52.996;9.124;2023-04-07T07:44:16;10.98;;;6.75;;
25980;SDS011;13772;52.996;9.124;2023-04-07T07:46:41;12.13;;;7.68;;
25980;SDS011;13772;52.996;9.124;2023-04-07T07:49:06;8.90;;;6.63;;
25980;SDS011;13772;52.996;9.124;2023-04-07T07:51:31;11.85;;;7.15;;
25980;SDS011;13772;52.996;9.124;2023-04-07T07:53:57;12.43;;;7.80;;
25980;SDS011;13772;52.996;9.124;2023-04-07T07:56:22;10.20;;;6.43;;
25980;SDS011;13772;52.996;9.124;2023-04-07T07:58:48;10.15;;;7.28;;
25980;SDS011;13772;52.996;9.124;2023-04-07T08:01:13;11.68;;;7.60;;
25980;SDS011;13772;52.996;9.124;2023-04-07T08:03:38;9.13;;;7.40;;
25980;SDS011;13772;52.996;9.124;2023-04-07T08:06:03;10.55;;;6.82;;
25980;SDS011;13772;52.996;9.124;2023-04-07T08:08:29;10.07;;;6.90;;
25980;SDS011;13772;52.996;9.124;2023-04-07T08:10:54;10.88;;;6.65;;
25980;SDS011;13772;52.996;9.124;2023-04-07T08:13:19;9.20;;;6.63;;
25980;SDS011;13772;52.996;9.124;2023-04-07T08:15:45;11.57;;;7.30;;
25980;SDS011;13772;52.996;9.124;2023-04-07T08:18:10;10.63;;;6.68;;
25980;SDS011;13772;52.996;9.124;2023-04-07T08:20:35;9.10;;;6.25;;
25980;SDS011;13772;52.996;9.124;2023-04-07T08:23:00;8.98;;;6.60;;
25980;SDS011;13772;52.996;9.124;2023-04-07T08:25:26;11.73;;;6.70;;
25980;SDS011;13772;52.996;9.124;2023-04-07T08:27:52;12.38;;;6.60;;
25980;SDS011;13772;52.996;9.124;2023-04-07T08:30:17;9.40;;;6.50;;
25980;SDS011;13772;52.996;9.124;2023-04-07T08:32:43;10.93;;;6.68;;
25980;SDS011;13772;52.996;9.124;2023-04-07T08:35:09;8.95;;;5.97;;
25980;SDS011;13772;52.996;9.124;2023-04-07T08:37:34;8.88;;;6.40;;
25980;SDS011;13772;52.996;9.124;2023-04-07T08:40:00;10.50;;;6.43;;
25980;SDS011;13772;52.996;9.124;2023-04-07T08:42:27;11.63;;;6.45;;
25980;SDS011;13772;52.996;9.124;2023-04-07T08:44:53;11.63;;;6.35;;
25980;SDS011;13772;52.996;9.124;2023-04-07T08:47:19;9.35;;;5.80;;
25980;SDS011;13772;52.996;9.124;2023-04-07T08:49:45;10.00;;;6.53;;
25980;SDS011;13772;52.996;9.124;2023-04-07T08:52:12;7.90;;;5.63;;
25980;SDS011;13772;52.996;9.124;2023-04-07T08:54:38;12.65;;;6.18;;
25980;SDS011;13772;52.996;9.124;2023-04-07T08:57:04;10.80;;;6.53;;
25980;SDS011;13772;52.996;9.124;2023-04-07T08:59:30;8.80;;;6.05;;
25980;SDS011;13772;52.996;9.124;2023-04-07T09:01:57;8.85;;;6.15;;
25980;SDS011;13772;52.996;9.124;2023-04-07T09:04:23;9.38;;;6.15;;
25980;SDS011;13772;52.996;9.124;2023-04-07T09:06:49;8.50;;;5.88;;
25980;SDS011;13772;52.996;9.124;2023-04-07T09:09:14;10.30;;;5.72;;
25980;SDS011;13772;52.996;9.124;2023-04-07T09:11:39;8.68;;;5.20;;
25980;SDS011;13772;52.996;9.124;2023-04-07T09:14:05;8.98;;;5.97;;
25980;SDS011;13772;52.996;9.124;2023-04-07T09:16:30;9.88;;;6.05;;
25980;SDS011;13772;52.996;9.124;2023-04-07T09:18:56;10.57;;;5.07;;
25980;SDS011;13772;52.996;9.124;2023-04-07T09:21:21;9.35;;;6.70;;
25980;SDS011;13772;52.996;9.124;2023-04-07T09:23:46;10.23;;;5.82;;
25980;SDS011;13772;52.996;9.124;2023-04-07T09:26:24;9.45;;;6.00;;
25980;SDS011;13772;52.996;9.124;2023-04-07T09:31:16;9.15;;;5.57;;
25980;SDS011;13772;52.996;9.124;2023-04-07T09:33:41;9.57;;;6.20;;
25980;SDS011;13772;52.996;9.124;2023-04-07T09:36:07;9.32;;;6.10;;
25980;SDS011;13772;52.996;9.124;2023-04-07T09:38:35;9.60;;;5.95;;
25980;SDS011;13772;52.996;9.124;2023-04-07T09:41:14;11.32;;;6.05;;
25980;SDS011;13772;52.996;9.124;2023-04-07T09:43:43;8.73;;;6.32;;
25980;SDS011;13772;52.996;9.124;2023-04-07T09:46:10;9.18;;;5.93;;
25980;SDS011;13772;52.996;9.124;2023-04-07T09:48:35;8.93;;;5.78;;
25980;SDS011;13772;52.996;9.124;2023-04-07T09:51:06;9.07;;;6.30;;
25980;SDS011;13772;52.996;9.124;2023-04-07T09:56:11;8.95;;;5.72;;
25980;SDS011;13772;52.996;9.124;2023-04-07T09:58:37;8.00;;;5.70;;
25980;SDS011;13772;52.996;9.124;2023-04-07T10:01:03;9.38;;;5.85;;
25980;SDS011;13772;52.996;9.124;2023-04-07T10:03:29;7.80;;;5.82;;
25980;SDS011;13772;52.996;9.124;2023-04-07T10:05:55;12.00;;;7.07;;
25980;SDS011;13772;52.996;9.124;2023-04-07T10:08:20;8.10;;;6.13;;
25980;SDS011;13772;52.996;9.124;2023-04-07T10:10:45;7.32;;;5.50;;
25980;SDS011;13772;52.996;9.124;2023-04-07T10:13:11;8.55;;;6.53;;
25980;SDS011;13772;52.996;9.124;2023-04-07T10:15:37;7.22;;;5.45;;
25980;SDS011;13772;52.996;9.124;2023-04-07T10:18:02;7.95;;;6.03;;
25980;SDS011;13772;52.996;9.124;2023-04-07T10:20:28;9.85;;;6.00;;
25980;SDS011;13772;52.996;9.124;2023-04-07T10:22:53;9.23;;;6.38;;
25980;SDS011;13772;52.996;9.124;2023-04-07T10:25:20;7.40;;;5.30;;
25980;SDS011;13772;52.996;9.124;2023-04-07T10:27:53;10.75;;;6.43;;
25980;SDS011;13772;52.996;9.124;2023-04-07T10:30:24;8.48;;;5.93;;
25980;SDS011;13772;52.996;9.124;2023-04-07T10:32:50;7.80;;;5.80;;
25980;SDS011;13772;52.996;9.124;2023-04-07T10:35:15;7.82;;;6.43;;
25980;SDS011;13772;52.996;9.124;2023-04-07T10:37:42;7.93;;;6.07;;
25980;SDS011;13772;52.996;9.124;2023-04-07T10:40:26;8.27;;;6.20;;
25980;SDS011;13772;52.996;9.124;2023-04-07T10:42:52;7.35;;;5.57;;
25980;SDS011;13772;52.996;9.124;2023-04-07T10:45:17;9.15;;;5.80;;
25980;SDS011;13772;52.996;9.124;2023-04-07T10:50:27;7.97;;;5.57;;
25980;SDS011;13772;52.996;9.124;2023-04-07T10:53:09;8.10;;;5.63;;
25980;SDS011;13772;52.996;9.124;2023-04-07T10:58:12;8.82;;;6.28;;
25980;SDS011;13772;52.996;9.124;2023-04-07T11:00:38;7.90;;;6.07;;
25980;SDS011;13772;52.996;9.124;2023-04-07T11:03:09;7.50;;;5.87;;
25980;SDS011;13772;52.996;9.124;2023-04-07T11:05:37;11.27;;;6.35;;
25980;SDS011;13772;52.996;9.124;2023-04-07T11:08:02;7.75;;;5.82;;
25980;SDS011;13772;52.996;9.124;2023-04-07T11:10:30;9.25;;;6.15;;
25980;SDS011;13772;52.996;9.124;2023-04-07T11:13:05;8.52;;;5.43;;
25980;SDS011;13772;52.996;9.124;2023-04-07T11:15:30;8.52;;;5.95;;
25980;SDS011;13772;52.996;9.124;2023-04-07T11:18:08;10.38;;;6.13;;
25980;SDS011;13772;52.996;9.124;2023-04-07T11:20:42;7.75;;;5.70;;
25980;SDS011;13772;52.996;9.124;2023-04-07T11:23:08;7.50;;;6.07;;
25980;SDS011;13772;52.996;9.124;2023-04-07T11:25:33;8.90;;;6.45;;
25980;SDS011;13772;52.996;9.124;2023-04-07T11:27:59;8.65;;;6.18;;
25980;SDS011;13772;52.996;9.124;2023-04-07T11:30:25;7.90;;;6.30;;
25980;SDS011;13772;52.996;9.124;2023-04-07T11:32:50;7.78;;;6.05;;
25980;SDS011;13772;52.996;9.124;2023-04-07T11:35:16;10.05;;;6.38;;
25980;SDS011;13772;52.996;9.124;2023-04-07T11:37:41;8.18;;;6.18;;
25980;SDS011;13772;52.996;9.124;2023-04-07T11:40:06;8.27;;;6.13;;
25980;SDS011;13772;52.996;9.124;2023-04-07T11:42:35;9.48;;;5.80;;
25980;SDS011;13772;52.996;9.124;2023-04-07T11:45:01;8.50;;;5.93;;
25980;SDS011;13772;52.996;9.124;2023-04-07T11:47:33;9.52;;;6.70;;
25980;SDS011;13772;52.996;9.124;2023-04-07T11:49:58;8.18;;;6.55;;
25980;SDS011;13772;52.996;9.124;2023-04-07T11:52:23;11.43;;;7.10;;
25980;SDS011;13772;52.996;9.124;2023-04-07T11:54:50;8.73;;;6.38;;
25980;SDS011;13772;52.996;9.124;2023-04-07T11:57:25;8.07;;;6.07;;
25980;SDS011;13772;52.996;9.124;2023-04-07T11:59:50;7.43;;;5.90;;
25980;SDS011;13772;52.996;9.124;2023-04-07T12:02:30;8.13;;;6.30;;
25980;SDS011;13772;52.996;9.124;2023-04-07T12:04:56;8.18;;;6.50;;
25980;SDS011;13772;52.996;9.124;2023-04-07T12:07:21;8.63;;;6.60;;
25980;SDS011;13772;52.996;9.124;2023-04-07T12:09:47;10.05;;;5.70;;
25980;SDS011;13772;52.996;9.124;2023-04-07T12:12:12;10.07;;;6.65;;
25980;SDS011;13772;52.996;9.124;2023-04-07T12:14:38;8.05;;;6.60;;
25980;SDS011;13772;52.996;9.124;2023-04-07T12:17:03;7.88;;;6.18;;
25980;SDS011;13772;52.996;9.124;2023-04-07T12:19:28;8.30;;;6.28;;
25980;SDS011;13772;52.996;9.124;2023-04-07T12:21:54;8.07;;;6.40;;
25980;SDS011;13772;52.996;9.124;2023-04-07T12:24:19;7.20;;;6.30;;
25980;SDS011;13772;52.996;9.124;2023-04-07T12:26:45;8.73;;;6.35;;
25980;SDS011;13772;52.996;9.124;2023-04-07T12:29:12;9.30;;;6.60;;
25980;SDS011;13772;52.996;9.124;2023-04-07T12:31:37;8.13;;;5.97;;
25980;SDS011;13772;52.996;9.124;2023-04-07T12:34:02;8.37;;;6.53;;
25980;SDS011;13772;52.996;9.124;2023-04-07T12:36:27;8.38;;;6.15;;
25980;SDS011;13772;52.996;9.124;2023-04-07T12:38:53;9.45;;;6.00;;
25980;SDS011;13772;52.996;9.124;2023-04-07T12:41:18;8.38;;;5.88;;
25980;SDS011;13772;52.996;9.124;2023-04-07T12:43:44;8.30;;;5.88;;
25980;SDS011;13772;52.996;9.124;2023-04-07T12:46:09;9.27;;;5.93;;
25980;SDS011;13772;52.996;9.124;2023-04-07T12:48:34;7.35;;;6.10;;
25980;SDS011;13772;52.996;9.124;2023-04-07T12:50:59;7.50;;;5.68;;
25980;SDS011;13772;52.996;9.124;2023-04-07T12:53:25;9.50;;;5.75;;
25980;SDS011;13772;52.996;9.124;2023-04-07T12:55:51;7.15;;;5.45;;
25980;SDS011;13772;52.996;9.124;2023-04-07T12:58:16;8.02;;;5.97;;
25980;SDS011;13772;52.996;9.124;2023-04-07T13:00:42;6.82;;;5.25;;
25980;SDS011;13772;52.996;9.124;2023-04-07T13:03:07;7.97;;;5.60;;
25980;SDS011;13772;52.996;9.124;2023-04-07T13:05:33;6.30;;;5.07;;
25980;SDS011;13772;52.996;9.124;2023-04-07T13:07:59;6.20;;;4.97;;
25980;SDS011;13772;52.996;9.124;2023-04-07T13:10:25;7.28;;;5.43;;
25980;SDS011;13772;52.996;9.124;2023-04-07T13:12:50;6.80;;;5.20;;
25980;SDS011;13772;52.996;9.124;2023-04-07T13:15:15;7.70;;;4.87;;
25980;SDS011;13772;52.996;9.124;2023-04-07T13:17:40;8.90;;;4.95;;
25980;SDS011;13772;52.996;9.124;2023-04-07T13:20:06;8.15;;;5.20;;
25980;SDS011;13772;52.996;9.124;2023-04-07T13:22:32;7.55;;;4.65;;
25980;SDS011;13772;52.996;9.124;2023-04-07T13:24:57;8.15;;;4.43;;
25980;SDS011;13772;52.996;9.124;2023-04-07T13:27:22;7.35;;;4.95;;
25980;SDS011;13772;52.996;9.124;2023-04-07T13:29:47;6.85;;;4.90;;
25980;SDS011;13772;52.996;9.124;2023-04-07T13:32:13;6.78;;;4.85;;
25980;SDS011;13772;52.996;9.124;2023-04-07T13:34:39;7.15;;;4.50;;
25980;SDS011;13772;52.996;9.124;2023-04-07T13:37:05;6.20;;;4.80;;
25980;SDS011;13772;52.996;9.124;2023-04-07T13:39:30;6.43;;;4.65;;
25980;SDS011;13772;52.996;9.124;2023-04-07T13:41:56;5.65;;;4.47;;
25980;SDS011;13772;52.996;9.124;2023-04-07T13:44:22;6.30;;;4.65;;
25980;SDS011;13772;52.996;9.124;2023-04-07T13:46:47;5.40;;;4.25;;
25980;SDS011;13772;52.996;9.124;2023-04-07T13:49:12;5.68;;;4.13;;
25980;SDS011;13772;52.996;9.124;2023-04-07T13:51:39;7.88;;;4.28;;
25980;SDS011;13772;52.996;9.124;2023-04-07T13:54:04;6.53;;;4.05;;
25980;SDS011;13772;52.996;9.124;2023-04-07T13:56:29;5.82;;;4.43;;
25980;SDS011;13772;52.996;9.124;2023-04-07T13:58:55;5.43;;;3.83;;
25980;SDS011;13772;52.996;9.124;2023-04-07T14:01:20;5.90;;;4.40;;
25980;SDS011;13772;52.996;9.124;2023-04-07T14:03:46;4.93;;;3.83;;
25980;SDS011;13772;52.996;9.124;2023-04-07T14:06:11;7.07;;;4.32;;
25980;SDS011;13772;52.996;9.124;2023-04-07T14:08:36;5.40;;;3.92;;
25980;SDS011;13772;52.996;9.124;2023-04-07T14:11:02;5.77;;;3.67;;
25980;SDS011;13772;52.996;9.124;2023-04-07T14:13:27;5.65;;;3.67;;
25980;SDS011;13772;52.996;9.124;2023-04-07T14:15:52;4.65;;;3.53;;
25980;SDS011;13772;52.996;9.124;2023-04-07T14:18:17;5.77;;;3.83;;
25980;SDS011;13772;52.996;9.124;2023-04-07T14:20:43;5.13;;;3.38;;
25980;SDS011;13772;52.996;9.124;2023-04-07T14:23:08;4.55;;;3.30;;
25980;SDS011;13772;52.996;9.124;2023-04-07T14:25:33;4.57;;;3.70;;
25980;SDS011;13772;52.996;9.124;2023-04-07T14:27:58;5.70;;;3.70;;
25980;SDS011;13772;52.996;9.124;2023-04-07T14:30:24;5.57;;;3.60;;
25980;SDS011;13772;52.996;9.124;2023-04-07T14:32:49;3.90;;;2.90;;
25980;SDS011;13772;52.996;9.124;2023-04-07T14:35:14;4.72;;;2.90;;
25980;SDS011;13772;52.996;9.124;2023-04-07T14:37:40;3.83;;;2.70;;
25980;SDS011;13772;52.996;9.124;2023-04-07T14:40:05;5.82;;;3.38;;
25980;SDS011;13772;52.996;9.124;2023-04-07T14:42:31;3.60;;;2.75;;
25980;SDS011;13772;52.996;9.124;2023-04-07T14:45:00;4.93;;;2.95;;
25980;SDS011;13772;52.996;9.124;2023-04-07T14:47:25;5.32;;;2.85;;
25980;SDS011;13772;52.996;9.124;2023-04-07T14:49:51;4.88;;;3.20;;
25980;SDS011;13772;52.996;9.124;2023-04-07T14:52:16;5.70;;;3.17;;
25980;SDS011;13772;52.996;9.124;2023-04-07T14:54:41;4.07;;;2.47;;
25980;SDS011;13772;52.996;9.124;2023-04-07T14:57:07;4.32;;;2.53;;
25980;SDS011;13772;52.996;9.124;2023-04-07T14:59:32;4.72;;;2.58;;
25980;SDS011;13772;52.996;9.124;2023-04-07T15:01:58;6.90;;;3.30;;
25980;SDS011;13772;52.996;9.124;2023-04-07T15:04:23;7.13;;;3.50;;
25980;SDS011;13772;52.996;9.124;2023-04-07T15:06:48;7.60;;;3.17;;
25980;SDS011;13772;52.996;9.124;2023-04-07T15:09:13;4.25;;;2.90;;
25980;SDS011;13772;52.996;9.124;2023-04-07T15:11:39;7.18;;;3.45;;
25980;SDS011;13772;52.996;9.124;2023-04-07T15:14:04;5.72;;;3.13;;
25980;SDS011;13772;52.996;9.124;2023-04-07T15:16:30;7.45;;;3.42;;
25980;SDS011;13772;52.996;9.124;2023-04-07T15:18:56;6.22;;;3.40;;
25980;SDS011;13772;52.996;9.124;2023-04-07T15:21:21;5.05;;;3.40;;
25980;SDS011;13772;52.996;9.124;2023-04-07T15:23:47;5.13;;;3.05;;
25980;SDS011;13772;52.996;9.124;2023-04-07T15:26:12;5.25;;;3.40;;
25980;SDS011;13772;52.996;9.124;2023-04-07T15:28:37;5.60;;;3.03;;
25980;SDS011;13772;52.996;9.124;2023-04-07T15:31:03;8.38;;;3.15;;
25980;SDS011;13772;52.996;9.124;2023-04-07T15:33:32;6.35;;;3.58;;
25980;SDS011;13772;52.996;9.124;2023-04-07T15:35:58;5.32;;;3.17;;
25980;SDS011;13772;52.996;9.124;2023-04-07T15:38:25;5.13;;;2.92;;
25980;SDS011;13772;52.996;9.124;2023-04-07T15:40:51;5.70;;;3.17;;
25980;SDS011;13772;52.996;9.124;2023-04-07T15:43:16;6.53;;;3.13;;
25980;SDS011;13772;52.996;9.124;2023-04-07T15:45:42;6.50;;;3.20;;
25980;SDS011;13772;52.996;9.124;2023-04-07T15:48:08;7.03;;;3.08;;
25980;SDS011;13772;52.996;9.124;2023-04-07T15:50:33;7.80;;;3.58;;
25980;SDS011;13772;52.996;9.124;2023-04-07T15:53:00;5.45;;;3.58;;
25980;SDS011;13772;52.996;9.124;2023-04-07T15:55:25;5.93;;;3.05;;
25980;SDS011;13772;52.996;9.124;2023-04-07T15:57:50;4.85;;;2.72;;
25980;SDS011;13772;52.996;9.124;2023-04-07T16:00:17;4.82;;;2.80;;
25980;SDS011;13772;52.996;9.124;2023-04-07T16:02:42;5.03;;;2.97;;
25980;SDS011;13772;52.996;9.124;2023-04-07T16:05:07;4.32;;;2.85;;
25980;SDS011;13772;52.996;9.124;2023-04-07T16:07:33;7.13;;;3.42;;
25980;SDS011;13772;52.996;9.124;2023-04-07T16:09:58;6.75;;;3.50;;
25980;SDS011;13772;52.996;9.124;2023-04-07T16:12:23;5.65;;;3.25;;
25980;SDS011;13772;52.996;9.124;2023-04-07T16:14:48;8.07;;;3.55;;
25980;SDS011;13772;52.996;9.124;2023-04-07T16:17:14;6.53;;;3.55;;
25980;SDS011;13772;52.996;9.124;2023-04-07T16:19:39;6.18;;;3.72;;
25980;SDS011;13772;52.996;9.124;2023-04-07T16:22:04;5.35;;;3.58;;
25980;SDS011;13772;52.996;9.124;2023-04-07T16:24:29;6.53;;;3.50;;
25980;SDS011;13772;52.996;9.124;2023-04-07T16:26:55;8.65;;;3.50;;
25980;SDS011;13772;52.996;9.124;2023-04-07T16:29:20;5.00;;;3.20;;
25980;SDS011;13772;52.996;9.124;2023-04-07T16:31:46;7.82;;;3.70;;
25980;SDS011;13772;52.996;9.124;2023-04-07T16:34:12;5.65;;;2.80;;
25980;SDS011;13772;52.996;9.124;2023-04-07T16:36:37;4.75;;;3.17;;
25980;SDS011;13772;52.996;9.124;2023-04-07T16:39:02;7.57;;;3.13;;
25980;SDS011;13772;52.996;9.124;2023-04-07T16:41:27;5.35;;;3.05;;
25980;SDS011;13772;52.996;9.124;2023-04-07T16:43:53;4.55;;;2.70;;
25980;SDS011;13772;52.996;9.124;2023-04-07T16:46:18;6.38;;;3.47;;
25980;SDS011;13772;52.996;9.124;2023-04-07T16:48:44;5.13;;;2.97;;
25980;SDS011;13772;52.996;9.124;2023-04-07T16:51:14;5.80;;;2.88;;
25980;SDS011;13772;52.996;9.124;2023-04-07T16:53:39;5.20;;;2.85;;
25980;SDS011;13772;52.996;9.124;2023-04-07T16:56:05;5.40;;;2.97;;
25980;SDS011;13772;52.996;9.124;2023-04-07T16:58:30;5.95;;;3.00;;
25980;SDS011;13772;52.996;9.124;2023-04-07T17:00:55;7.65;;;2.80;;
25980;SDS011;13772;52.996;9.124;2023-04-07T17:03:20;4.28;;;2.60;;
25980;SDS011;13772;52.996;9.124;2023-04-07T17:05:46;4.88;;;2.53;;
25980;SDS011;13772;52.996;9.124;2023-04-07T17:08:12;4.30;;;2.45;;
25980;SDS011;13772;52.996;9.124;2023-04-07T17:10:37;4.40;;;2.72;;
25980;SDS011;13772;52.996;9.124;2023-04-07T17:13:02;4.70;;;2.80;;
25980;SDS011;13772;52.996;9.124;2023-04-07T17:15:27;5.22;;;2.53;;
25980;SDS011;13772;52.996;9.124;2023-04-07T17:17:53;3.90;;;2.50;;
25980;SDS011;13772;52.996;9.124;2023-04-07T17:20:18;3.92;;;2.15;;
25980;SDS011;13772;52.996;9.124;2023-04-07T17:22:43;4.70;;;2.45;;
25980;SDS011;13772;52.996;9.124;2023-04-07T17:25:09;5.78;;;2.42;;
25980;SDS011;13772;52.996;9.124;2023-04-07T17:27:34;4.20;;;2.58;;
25980;SDS011;13772;52.996;9.124;2023-04-07T17:30:00;7.75;;;2.45;;
25980;SDS011;13772;52.996;9.124;2023-04-07T17:32:26;3.20;;;2.10;;
25980;SDS011;13772;52.996;9.124;2023-04-07T17:34:51;4.00;;;2.30;;
25980;SDS011;13772;52.996;9.124;2023-04-07T17:37:16;4.28;;;2.40;;
25980;SDS011;13772;52.996;9.124;2023-04-07T17:39:41;4.47;;;2.53;;
25980;SDS011;13772;52.996;9.124;2023-04-07T17:42:06;3.40;;;2.25;;
25980;SDS011;13772;52.996;9.124;2023-04-07T17:44:34;4.65;;;2.05;;
25980;SDS011;13772;52.996;9.124;2023-04-07T17:47:00;3.28;;;2.10;;
25980;SDS011;13772;52.996;9.124;2023-04-07T17:49:26;3.97;;;2.17;;
25980;SDS011;13772;52.996;9.124;2023-04-07T17:51:51;5.22;;;2.40;;
25980;SDS011;13772;52.996;9.124;2023-04-07T17:54:18;6.75;;;2.85;;
25980;SDS011;13772;52.996;9.124;2023-04-07T17:56:43;4.80;;;2.58;;
25980;SDS011;13772;52.996;9.124;2023-04-07T17:59:08;4.47;;;2.25;;
25980;SDS011;13772;52.996;9.124;2023-04-07T18:01:33;3.72;;;2.03;;
25980;SDS011;13772;52.996;9.124;2023-04-07T18:03:58;3.75;;;1.73;;
25980;SDS011;13772;52.996;9.124;2023-04-07T18:06:24;4.35;;;1.90;;
25980;SDS011;13772;52.996;9.124;2023-04-07T18:08:49;4.55;;;1.83;;
25980;SDS011;13772;52.996;9.124;2023-04-07T18:11:14;3.88;;;1.98;;
25980;SDS011;13772;52.996;9.124;2023-04-07T18:13:40;4.18;;;1.77;;
25980;SDS011;13772;52.996;9.124;2023-04-07T18:16:06;3.45;;;1.70;;
25980;SDS011;13772;52.996;9.124;2023-04-07T18:18:35;3.15;;;1.35;;
25980;SDS011;13772;52.996;9.124;2023-04-07T18:21:04;3.40;;;1.80;;
25980;SDS011;13772;52.996;9.124;2023-04-07T18:23:30;3.53;;;1.60;;
25980;SDS011;13772;52.996;9.124;2023-04-07T18:25:55;4.15;;;1.88;;
25980;SDS011;13772;52.996;9.124;2023-04-07T18:28:20;5.00;;;1.70;;
25980;SDS011;13772;52.996;9.124;2023-04-07T18:30:45;3.55;;;1.60;;
25980;SDS011;13772;52.996;9.124;2023-04-07T18:33:11;4.25;;;1.70;;
25980;SDS011;13772;52.996;9.124;2023-04-07T18:35:38;3.65;;;1.65;;
25980;SDS011;13772;52.996;9.124;2023-04-07T18:38:03;3.63;;;1.55;;
25980;SDS011;13772;52.996;9.124;2023-04-07T18:40:28;4.10;;;1.50;;
25980;SDS011;13772;52.996;9.124;2023-04-07T18:42:56;3.28;;;1.80;;
25980;SDS011;13772;52.996;9.124;2023-04-07T18:45:22;3.65;;;1.70;;
25980;SDS011;13772;52.996;9.124;2023-04-07T18:47:47;4.25;;;1.90;;
25980;SDS011;13772;52.996;9.124;2023-04-07T18:50:12;3.30;;;1.50;;
25980;SDS011;13772;52.996;9.124;2023-04-07T18:52:37;4.25;;;1.73;;
25980;SDS011;13772;52.996;9.124;2023-04-07T18:55:03;3.88;;;1.77;;
25980;SDS011;13772;52.996;9.124;2023-04-07T18:57:28;5.07;;;2.00;;
25980;SDS011;13772;52.996;9.124;2023-04-07T18:59:54;3.63;;;1.98;;
25980;SDS011;13772;52.996;9.124;2023-04-07T19:02:19;5.00;;;2.10;;
25980;SDS011;13772;52.996;9.124;2023-04-07T19:04:44;5.72;;;2.88;;
25980;SDS011;13772;52.996;9.124;2023-04-07T19:07:09;5.25;;;2.55;;
25980;SDS011;13772;52.996;9.124;2023-04-07T19:09:35;6.35;;;2.70;;
25980;SDS011;13772;52.996;9.124;2023-04-07T19:12:01;4.05;;;2.30;;
25980;SDS011;13772;52.996;9.124;2023-04-07T19:14:27;7.55;;;2.00;;
25980;SDS011;13772;52.996;9.124;2023-04-07T19:16:52;3.75;;;2.08;;
25980;SDS011;13772;52.996;9.124;2023-04-07T19:19:17;3.38;;;1.95;;
25980;SDS011;13772;52.996;9.124;2023-04-07T19:21:42;3.95;;;2.10;;
25980;SDS011;13772;52.996;9.124;2023-04-07T19:24:07;4.18;;;2.38;;
25980;SDS011;13772;52.996;9.124;2023-04-07T19:26:33;3.85;;;2.03;;
25980;SDS011;13772;52.996;9.124;2023-04-07T19:28:58;4.30;;;2.45;;
25980;SDS011;13772;52.996;9.124;2023-04-07T19:31:24;3.97;;;2.17;;
25980;SDS011;13772;52.996;9.124;2023-04-07T19:33:49;3.22;;;1.92;;
25980;SDS011;13772;52.996;9.124;2023-04-07T19:36:14;4.70;;;2.20;;
25980;SDS011;13772;52.996;9.124;2023-04-07T19:38:40;4.20;;;2.28;;
25980;SDS011;13772;52.996;9.124;2023-04-07T19:41:05;4.57;;;2.72;;
25980;SDS011;13772;52.996;9.124;2023-04-07T19:43:30;5.57;;;2.50;;
25980;SDS011;13772;52.996;9.124;2023-04-07T19:45:56;3.92;;;2.55;;
25980;SDS011;13772;52.996;9.124;2023-04-07T19:48:21;5.50;;;3.10;;
25980;SDS011;13772;52.996;9.124;2023-04-07T19:50:47;6.45;;;3.03;;
25980;SDS011;13772;52.996;9.124;2023-04-07T19:53:13;5.90;;;3.03;;
25980;SDS011;13772;52.996;9.124;2023-04-07T19:55:44;5.78;;;3.60;;
25980;SDS011;13772;52.996;9.124;2023-04-07T19:58:10;7.13;;;3.95;;
25980;SDS011;13772;52.996;9.124;2023-04-07T20:00:35;6.72;;;3.85;;
25980;SDS011;13772;52.996;9.124;2023-04-07T20:03:01;7.30;;;4.10;;
25980;SDS011;13772;52.996;9.124;2023-04-07T20:05:27;6.30;;;4.13;;
25980;SDS011;13772;52.996;9.124;2023-04-07T20:07:52;6.28;;;4.10;;
25980;SDS011;13772;52.996;9.124;2023-04-07T20:10:18;6.75;;;3.80;;
25980;SDS011;13772;52.996;9.124;2023-04-07T20:12:43;5.90;;;3.83;;
25980;SDS011;13772;52.996;9.124;2023-04-07T20:15:08;9.77;;;4.53;;
25980;SDS011;13772;52.996;9.124;2023-04-07T20:17:33;7.38;;;4.68;;
25980;SDS011;13772;52.996;9.124;2023-04-07T20:20:01;7.55;;;4.28;;
25980;SDS011;13772;52.996;9.124;2023-04-07T20:22:26;6.20;;;3.90;;
25980;SDS011;13772;52.996;9.124;2023-04-07T20:24:51;7.88;;;4.47;;
25980;SDS011;13772;52.996;9.124;2023-04-07T20:27:16;7.20;;;4.45;;
25980;SDS011;13772;52.996;9.124;2023-04-07T20:29:42;9.93;;;4.88;;
25980;SDS011;13772;52.996;9.124;2023-04-07T20:32:07;8.18;;;4.60;;
25980;SDS011;13772;52.996;9.124;2023-04-07T20:34:33;7.35;;;4.57;;
25980;SDS011;13772;52.996;9.124;2023-04-07T20:36:58;7.18;;;4.80;;
25980;SDS011;13772;52.996;9.124;2023-04-07T20:39:23;7.40;;;4.78;;
25980;SDS011;13772;52.996;9.124;2023-04-07T20:41:48;7.93;;;4.75;;
25980;SDS011;13772;52.996;9.124;2023-04-07T20:44:13;8.52;;;4.63;;
25980;SDS011;13772;52.996;9.124;2023-04-07T20:46:39;10.38;;;5.10;;
25980;SDS011;13772;52.996;9.124;2023-04-07T20:49:04;8.02;;;4.95;;
25980;SDS011;13772;52.996;9.124;2023-04-07T20:51:32;9.82;;;5.47;;
25980;SDS011;13772;52.996;9.124;2023-04-07T20:53:58;7.32;;;4.82;;
25980;SDS011;13772;52.996;9.124;2023-04-07T20:56:24;8.80;;;5.43;;
25980;SDS011;13772;52.996;9.124;2023-04-07T20:58:49;10.65;;;5.75;;
25980;SDS011;13772;52.996;9.124;2023-04-07T21:01:14;8.45;;;5.78;;
25980;SDS011;13772;52.996;9.124;2023-04-07T21:03:40;8.23;;;5.32;;
25980;SDS011;13772;52.996;9.124;2023-04-07T21:06:06;8.48;;;5.57;;
25980;SDS011;13772;52.996;9.124;2023-04-07T21:08:31;8.82;;;5.57;;
25980;SDS011;13772;52.996;9.124;2023-04-07T21:10:56;9.15;;;5.90;;
25980;SDS011;13772;52.996;9.124;2023-04-07T21:13:21;8.05;;;6.13;;
25980;SDS011;13772;52.996;9.124;2023-04-07T21:15:49;9.60;;;6.40;;
25980;SDS011;13772;52.996;9.124;2023-04-07T21:18:15;11.98;;;6.43;;
25980;SDS011;13772;52.996;9.124;2023-04-07T21:20:40;9.55;;;6.07;;
25980;SDS011;13772;52.996;9.124;2023-04-07T21:23:05;9.75;;;6.03;;
25980;SDS011;13772;52.996;9.124;2023-04-07T21:25:32;10.52;;;6.10;;
25980;SDS011;13772;52.996;9.124;2023-04-07T21:27:57;9.80;;;6.80;;
25980;SDS011;13772;52.996;9.124;2023-04-07T21:30:23;11.18;;;7.47;;
25980;SDS011;13772;52.996;9.124;2023-04-07T21:32:48;11.40;;;6.93;;
25980;SDS011;13772;52.996;9.124;2023-04-07T21:35:13;10.95;;;6.30;;
25980;SDS011;13772;52.996;9.124;2023-04-07T21:37:38;11.70;;;6.60;;
25980;SDS011;13772;52.996;9.124;2023-04-07T21:40:04;11.52;;;6.47;;
25980;SDS011;13772;52.996;9.124;2023-04-07T21:42:30;10.02;;;6.43;;
25980;SDS011;13772;52.996;9.124;2023-04-07T21:44:55;9.02;;;6.30;;